KMHE/MHE METAR and TAF weather

Enter ICAO airport designator
Station Type Date Time Source
KMHE METAR 2019/06/26 05:53 UTC NOAA

KMHE 260553Z AUTO 15006KT 10SM CLR 18/14 A2992 RMK AO2 SLP127 60000 T01830139 10283 20183 402830144 50005


Station Type Date Time Source
KMHE Decoded METAR 2019/06/26 05:53 UTC NOAA

MITCHELL MUNICIPAL AIRPORT, SD, United States (KMHE) 43-46N 98-02W
Jun 26, 2019 - 01:53 AM EDT / 2019.06.26 0553 UTC
Wind: from the SSE (150 degrees) at 7 MPH (6 KT):0
Visibility: 10 mile(s):0
Sky conditions: clear
Temperature: 64.9 F (18.3 C)
Dew Point: 57.0 F (13.9 C)
Relative Humidity: 75%
Pressure (altimeter): 29.92 in. Hg (1013 hPa)
Pressure tendency: 0.01 inches (0.5 hPa) higher than three hours ago
ob: KMHE 260553Z AUTO 15006KT 10SM CLR 18/14 A2992 RMK AO2 SLP127 60000 T01830139 10283 20183 402830144 50005
cycle: 6

Station Type Date Time Source
KMHE TAF UTC NOAA

Error!

Example: see airport list